Time;durP1;ratioP1;P1;durP2;ratioP2;P2;SDS_P1;SDS_P2;PMS_P1;PMS_P2;Temp;Humidity;BMP_temperature;BMP_pressure;BME280_temperature;BME280_humidity;BME280_pressure;Samples;Min_cycle;Max_cycle;Signal;HPM_P1;HPM_P2
2022/07/30 00:00:10;;;;;;;;;4.50;3.00;;;;;;;;5006177;28;8876;-75
2022/07/30 00:02:38;;;;;;;;;6.00;4.25;;;;;;;;4999857;28;9686;-75
2022/07/30 00:05:07;;;;;;;;;5.00;5.00;;;;;;;;5002371;28;8883;-75
2022/07/30 00:07:35;;;;;;;;;5.00;5.00;;;;;;;;5000342;28;8896;-75
2022/07/30 00:10:03;;;;;;;;;3.50;3.50;;;;;;;;5003506;28;8888;-76
2022/07/30 00:12:30;;;;;;;;;3.00;3.00;;;;;;;;5001290;28;8908;-76
2022/07/30 00:14:58;;;;;;;;;3.75;3.75;;;;;;;;5003651;28;8876;-76
2022/07/30 00:17:25;;;;;;;;;4.00;4.00;;;;;;;;5000189;28;8856;-77
2022/07/30 00:19:52;;;;;;;;;5.00;5.00;;;;;;;;4998822;28;8897;-78
2022/07/30 00:22:19;;;;;;;;;5.00;5.00;;;;;;;;5001378;28;9676;-75
2022/07/30 00:24:48;;;;;;;;;5.50;4.25;;;;;;;;5006239;28;8900;-77
2022/07/30 00:27:15;;;;;;;;;5.25;5.25;;;;;;;;5014209;28;8853;-76
2022/07/30 00:29:42;;;;;;;;;5.00;5.00;;;;;;;;5013047;28;8876;-77
2022/07/30 00:32:10;;;;;;;;;4.00;4.00;;;;;;;;5004552;28;8809;-78
2022/07/30 00:34:37;;;;;;;;;5.00;5.00;;;;;;;;4999557;28;8943;-76
2022/07/30 00:37:04;;;;;;;;;3.00;3.00;;;;;;;;5004251;28;8914;-77
2022/07/30 00:39:31;;;;;;;;;3.75;3.75;;;;;;;;5003252;28;8988;-75
2022/07/30 00:42:02;;;;;;;;;4.00;4.00;;;;;;;;5014092;28;8885;-79
2022/07/30 00:44:29;;;;;;;;;4.00;4.00;;;;;;;;5005446;28;8848;-76
2022/07/30 00:46:57;;;;;;;;;6.75;4.75;;;;;;;;5002447;28;8902;-77
2022/07/30 00:49:25;;;;;;;;;3.00;3.00;;;;;;;;5009349;28;8897;-76
2022/07/30 00:51:53;;;;;;;;;4.50;4.50;;;;;;;;5002178;28;8888;-77
2022/07/30 00:54:21;;;;;;;;;4.00;4.00;;;;;;;;5012726;28;8950;-76
2022/07/30 00:56:49;;;;;;;;;3.00;3.00;;;;;;;;5003570;28;8895;-75
2022/07/30 00:59:18;;;;;;;;;3.00;3.00;;;;;;;;5011289;28;9006;-76
2022/07/30 01:01:45;;;;;;;;;5.00;4.00;;;;;;;;5002811;28;8825;-76
2022/07/30 01:04:13;;;;;;;;;2.75;2.75;;;;;;;;5013603;28;8913;-76
2022/07/30 01:06:40;;;;;;;;;3.00;3.00;;;;;;;;5004928;28;8979;-75
2022/07/30 01:09:08;;;;;;;;;3.00;3.00;;;;;;;;5008196;28;8881;-73
2022/07/30 01:11:37;;;;;;;;;2.25;2.25;;;;;;;;5009442;28;8880;-75
2022/07/30 01:14:06;;;;;;;;;3.50;3.50;;;;;;;;5010480;28;8860;-74
2022/07/30 01:16:36;;;;;;;;;4.25;2.50;;;;;;;;5004319;28;8896;-77
2022/07/30 01:21:58;;;;;;;;;2.50;2.50;;;;;;;;5006787;28;9616;-76
2022/07/30 01:24:29;;;;;;;;;3.00;3.00;;;;;;;;5007523;28;9663;-77
2022/07/30 01:26:58;;;;;;;;;3.00;3.00;;;;;;;;5001746;28;8955;-75
2022/07/30 01:29:28;;;;;;;;;3.00;3.00;;;;;;;;5016423;28;8856;-76
2022/07/30 01:31:58;;;;;;;;;2.00;2.00;;;;;;;;5004616;28;8830;-76
2022/07/30 01:34:28;;;;;;;;;2.00;2.00;;;;;;;;5003430;28;8872;-76
2022/07/30 01:36:57;;;;;;;;;2.00;2.00;;;;;;;;5032705;28;8880;-76
2022/07/30 01:39:25;;;;;;;;;2.00;2.00;;;;;;;;5008834;28;8876;-77
2022/07/30 01:41:54;;;;;;;;;7.00;4.00;;;;;;;;5008061;28;8908;-79
2022/07/30 01:44:24;;;;;;;;;4.00;4.00;;;;;;;;5012047;28;8886;-75
2022/07/30 01:46:53;;;;;;;;;7.00;4.00;;;;;;;;5014471;28;8889;-76
2022/07/30 01:49:22;;;;;;;;;5.00;5.00;;;;;;;;5016485;28;8867;-77
2022/07/30 01:51:50;;;;;;;;;3.50;3.50;;;;;;;;5000824;28;8880;-76
2022/07/30 01:54:18;;;;;;;;;3.00;3.00;;;;;;;;5008970;28;8854;-74
2022/07/30 01:56:46;;;;;;;;;5.50;5.00;;;;;;;;4996053;28;8868;-76
2022/07/30 01:59:16;;;;;;;;;4.25;4.25;;;;;;;;5003900;28;8876;-74
2022/07/30 02:01:45;;;;;;;;;3.75;3.75;;;;;;;;5001412;28;8826;-76
2022/07/30 02:04:12;;;;;;;;;3.00;3.00;;;;;;;;5002449;28;9516;-74
2022/07/30 02:06:43;;;;;;;;;3.00;3.00;;;;;;;;5001493;28;8844;-75
2022/07/30 02:09:10;;;;;;;;;4.00;4.00;;;;;;;;5008853;28;8873;-74
2022/07/30 02:14:33;;;;;;;;;3.00;3.00;;;;;;;;5002115;28;8986;-75
2022/07/30 02:17:03;;;;;;;;;2.75;2.75;;;;;;;;5010607;28;8915;-77
2022/07/30 02:19:34;;;;;;;;;2.50;2.50;;;;;;;;5004261;28;8888;-76
2022/07/30 02:22:05;;;;;;;;;3.00;3.00;;;;;;;;4993625;28;8872;-75
2022/07/30 02:24:33;;;;;;;;;3.50;3.50;;;;;;;;5007355;28;8872;-75
2022/07/30 02:27:03;;;;;;;;;4.50;3.00;;;;;;;;5003872;28;8868;-75
2022/07/30 02:29:32;;;;;;;;;3.00;3.00;;;;;;;;5004295;28;8926;-75
2022/07/30 02:32:02;;;;;;;;;2.75;2.25;;;;;;;;5006141;28;8817;-74
2022/07/30 02:34:32;;;;;;;;;2.50;2.50;;;;;;;;5010006;28;8888;-75
2022/07/30 02:37:01;;;;;;;;;3.50;3.50;;;;;;;;5004096;28;8860;-74
2022/07/30 02:39:32;;;;;;;;;2.75;2.75;;;;;;;;5004709;28;8896;-77
2022/07/30 02:42:00;;;;;;;;;4.00;4.00;;;;;;;;5008412;28;8962;-76
2022/07/30 02:44:29;;;;;;;;;4.25;4.25;;;;;;;;5009967;28;8869;-75
2022/07/30 02:46:58;;;;;;;;;3.25;3.25;;;;;;;;5011004;28;9741;-76
2022/07/30 02:49:27;;;;;;;;;4.00;4.00;;;;;;;;5009962;28;8897;-76
2022/07/30 02:51:55;;;;;;;;;4.25;4.25;;;;;;;;5010078;28;8876;-76
2022/07/30 02:54:23;;;;;;;;;3.00;3.00;;;;;;;;5011930;28;8868;-75
2022/07/30 02:56:51;;;;;;;;;4.00;4.00;;;;;;;;5007983;28;8990;-76
2022/07/30 02:59:20;;;;;;;;;1.50;1.50;;;;;;;;5007704;28;8856;-75
2022/07/30 03:01:49;;;;;;;;;4.33;4.33;;;;;;;;5005350;28;8891;-78
2022/07/30 03:04:19;;;;;;;;;4.00;4.00;;;;;;;;5022119;28;8881;-75
2022/07/30 03:06:49;;;;;;;;;4.00;4.00;;;;;;;;5017699;28;8915;-76
2022/07/30 03:09:18;;;;;;;;;5.00;5.00;;;;;;;;5014143;28;8904;-75
2022/07/30 03:11:46;;;;;;;;;6.00;4.75;;;;;;;;5011429;28;8979;-75
2022/07/30 03:14:13;;;;;;;;;5.00;5.00;;;;;;;;5005284;28;9007;-75
2022/07/30 03:16:44;;;;;;;;;5.00;5.00;;;;;;;;5007413;28;8853;-74
2022/07/30 03:19:12;;;;;;;;;4.00;4.00;;;;;;;;5004468;28;9011;-74
2022/07/30 03:21:42;;;;;;;;;4.50;4.50;;;;;;;;5010941;28;8849;-74
2022/07/30 03:24:12;;;;;;;;;3.00;3.00;;;;;;;;5011316;28;8930;-75
2022/07/30 03:26:40;;;;;;;;;4.00;4.00;;;;;;;;5011531;28;8856;-75
2022/07/30 03:29:08;;;;;;;;;5.75;4.75;;;;;;;;5009402;28;9478;-75
2022/07/30 03:31:36;;;;;;;;;6.00;4.67;;;;;;;;5006817;28;8813;-76
2022/07/30 03:34:04;;;;;;;;;3.75;3.00;;;;;;;;5005833;28;8878;-76
2022/07/30 03:36:31;;;;;;;;;3.75;3.75;;;;;;;;5005880;28;8860;-74
2022/07/30 03:38:59;;;;;;;;;4.25;4.25;;;;;;;;5011336;28;8861;-75
2022/07/30 03:41:28;;;;;;;;;3.00;3.00;;;;;;;;5016231;28;8880;-74
2022/07/30 03:43:56;;;;;;;;;3.50;3.50;;;;;;;;5004140;28;8891;-74
2022/07/30 03:46:23;;;;;;;;;6.00;4.75;;;;;;;;5007752;28;8896;-74
2022/07/30 03:48:52;;;;;;;;;4.75;4.75;;;;;;;;5004916;28;8880;-75
2022/07/30 03:51:19;;;;;;;;;3.00;3.00;;;;;;;;5007989;28;8858;-81
2022/07/30 03:53:47;;;;;;;;;5.00;4.00;;;;;;;;4998710;28;8887;-81
2022/07/30 03:56:14;;;;;;;;;7.00;5.00;;;;;;;;5012072;28;8857;-79
2022/07/30 03:58:43;;;;;;;;;4.00;4.00;;;;;;;;5013848;28;8872;-79
2022/07/30 04:01:11;;;;;;;;;5.25;5.00;;;;;;;;5006121;28;9084;-76
2022/07/30 04:03:38;;;;;;;;;7.00;5.00;;;;;;;;5005524;28;8890;-76
2022/07/30 04:06:06;;;;;;;;;6.00;6.00;;;;;;;;5010390;28;9118;-78
2022/07/30 04:08:33;;;;;;;;;4.00;4.00;;;;;;;;5007724;28;8972;-79
2022/07/30 04:11:00;;;;;;;;;3.67;3.67;;;;;;;;5002495;28;8896;-79
2022/07/30 04:13:28;;;;;;;;;5.33;5.33;;;;;;;;5003928;28;9042;-82
2022/07/30 04:16:01;;;;;;;;;6.00;6.00;;;;;;;;5001115;28;8975;-78
2022/07/30 04:18:34;;;;;;;;;5.00;5.00;;;;;;;;5005258;28;9110;-79
2022/07/30 04:21:05;;;;;;;;;3.00;3.00;;;;;;;;5004167;28;9132;-79
2022/07/30 04:23:33;;;;;;;;;3.00;3.00;;;;;;;;5002721;28;9730;-79
2022/07/30 04:26:01;;;;;;;;;5.00;5.00;;;;;;;;5002355;28;9106;-77
2022/07/30 04:28:29;;;;;;;;;3.00;3.00;;;;;;;;5004238;28;9061;-77
2022/07/30 04:30:58;;;;;;;;;4.67;4.67;;;;;;;;5004072;28;8973;-77
2022/07/30 04:33:26;;;;;;;;;5.00;3.00;;;;;;;;4991563;28;9022;-76
2022/07/30 04:35:54;;;;;;;;;4.33;4.33;;;;;;;;5002265;28;8971;-79
2022/07/30 04:38:21;;;;;;;;;5.00;5.00;;;;;;;;5017485;28;9180;-78
2022/07/30 04:40:49;;;;;;;;;4.00;4.00;;;;;;;;5013259;28;9051;-81
2022/07/30 04:43:17;;;;;;;;;4.67;3.67;;;;;;;;4998080;28;9017;-81
2022/07/30 04:45:44;;;;;;;;;4.00;4.00;;;;;;;;5002519;28;9038;-78
2022/07/30 04:48:13;;;;;;;;;7.33;7.33;;;;;;;;5008446;28;8982;-75
2022/07/30 04:50:43;;;;;;;;;3.00;3.00;;;;;;;;5005588;28;9048;-72
2022/07/30 04:53:12;;;;;;;;;5.00;5.00;;;;;;;;5000474;28;8880;-81
2022/07/30 04:55:42;;;;;;;;;5.00;4.00;;;;;;;;5010249;28;8964;-75
2022/07/30 04:58:11;;;;;;;;;6.00;4.00;;;;;;;;5012306;28;10130;-77
2022/07/30 05:00:39;;;;;;;;;4.33;4.33;;;;;;;;5003331;28;8926;-77
2022/07/30 05:03:09;;;;;;;;;3.00;3.00;;;;;;;;5012121;28;8969;-78
2022/07/30 05:05:38;;;;;;;;;4.00;4.00;;;;;;;;5000341;28;9017;-79
2022/07/30 05:08:05;;;;;;;;;5.00;5.00;;;;;;;;5006137;28;8972;-76
2022/07/30 05:10:33;;;;;;;;;5.67;5.67;;;;;;;;5012940;28;10150;-74
2022/07/30 05:13:00;;;;;;;;;6.00;6.00;;;;;;;;5004504;28;9036;-73
2022/07/30 05:15:28;;;;;;;;;5.00;5.00;;;;;;;;5018128;28;9083;-76
2022/07/30 05:17:55;;;;;;;;;5.67;5.67;;;;;;;;5004797;28;9054;-78
2022/07/30 05:20:23;;;;;;;;;5.00;5.00;;;;;;;;5019631;28;9562;-76
2022/07/30 05:22:52;;;;;;;;;5.00;5.00;;;;;;;;5018411;28;9027;-76
2022/07/30 05:25:19;;;;;;;;;6.00;6.00;;;;;;;;5016121;28;9125;-77
2022/07/30 05:27:46;;;;;;;;;5.00;5.00;;;;;;;;5007104;28;8989;-74
2022/07/30 05:30:14;;;;;;;;;4.50;4.50;;;;;;;;5018572;28;8885;-75
2022/07/30 05:32:42;;;;;;;;;5.50;5.50;;;;;;;;5016868;28;9654;-75
2022/07/30 05:35:10;;;;;;;;;5.75;5.00;;;;;;;;5012017;28;9727;-74
2022/07/30 05:37:37;;;;;;;;;5.00;5.00;;;;;;;;5013751;28;8894;-77
2022/07/30 05:40:21;;;;;;;;;5.00;5.00;;;;;;;;5009437;28;8956;-77
2022/07/30 05:42:48;;;;;;;;;5.00;5.00;;;;;;;;5016003;28;8991;-77
2022/07/30 05:45:16;;;;;;;;;6.75;5.25;;;;;;;;5017839;28;8880;-78
2022/07/30 05:47:48;;;;;;;;;4.25;4.25;;;;;;;;5005196;28;8860;-74
2022/07/30 05:50:15;;;;;;;;;5.25;5.25;;;;;;;;5010692;28;8874;-78
2022/07/30 05:52:43;;;;;;;;;4.00;3.75;;;;;;;;4998727;28;8884;-76
2022/07/30 05:55:11;;;;;;;;;11.75;6.00;;;;;;;;5009046;28;8887;-75
2022/07/30 05:57:41;;;;;;;;;3.00;3.00;;;;;;;;5004911;28;8981;-75
2022/07/30 06:00:10;;;;;;;;;5.50;4.00;;;;;;;;5009190;28;8888;-77
2022/07/30 06:02:39;;;;;;;;;4.00;4.00;;;;;;;;5010987;28;8860;-78
2022/07/30 06:05:08;;;;;;;;;4.00;4.00;;;;;;;;5007062;28;8973;-79
2022/07/30 06:07:35;;;;;;;;;6.00;6.00;;;;;;;;5011214;28;8856;-77
2022/07/30 06:10:03;;;;;;;;;4.75;4.75;;;;;;;;5004591;28;8880;-73
2022/07/30 06:12:31;;;;;;;;;6.75;5.50;;;;;;;;5016577;28;8889;-77
2022/07/30 06:14:59;;;;;;;;;7.00;5.00;;;;;;;;5007461;28;8883;-73
2022/07/30 06:17:26;;;;;;;;;4.75;4.75;;;;;;;;5013665;28;8868;-75
2022/07/30 06:19:54;;;;;;;;;5.00;5.00;;;;;;;;5004775;28;8872;-77
2022/07/30 06:22:21;;;;;;;;;5.00;5.00;;;;;;;;5009274;28;8882;-73
2022/07/30 06:24:48;;;;;;;;;5.75;5.75;;;;;;;;5012317;28;8880;-73
2022/07/30 06:27:16;;;;;;;;;6.50;6.50;;;;;;;;5001554;28;9016;-78
2022/07/30 06:29:43;;;;;;;;;6.00;5.75;;;;;;;;5012643;28;8882;-83
2022/07/30 06:32:12;;;;;;;;;4.75;4.75;;;;;;;;5000987;28;8829;-79
2022/07/30 06:34:39;;;;;;;;;5.75;5.75;;;;;;;;5002955;28;8879;-82
2022/07/30 06:37:07;;;;;;;;;6.00;4.00;;;;;;;;5000850;28;9603;-78
2022/07/30 06:39:34;;;;;;;;;4.25;4.25;;;;;;;;5005215;28;8885;-85
2022/07/30 06:42:02;;;;;;;;;6.00;6.00;;;;;;;;5002524;28;8894;-88
2022/07/30 06:44:29;;;;;;;;;7.25;5.00;;;;;;;;5001653;28;8927;-80
2022/07/30 06:46:56;;;;;;;;;5.00;5.00;;;;;;;;5001028;28;8876;-74
2022/07/30 06:49:25;;;;;;;;;5.00;5.00;;;;;;;;5002105;28;8865;-84
2022/07/30 06:51:52;;;;;;;;;4.50;4.50;;;;;;;;5007638;28;9009;-79
2022/07/30 06:54:20;;;;;;;;;6.00;6.00;;;;;;;;5003591;28;8880;-75
2022/07/30 06:56:47;;;;;;;;;6.00;6.00;;;;;;;;5009328;28;8876;-82
2022/07/30 06:59:14;;;;;;;;;5.75;5.75;;;;;;;;5004619;28;8932;-82
2022/07/30 07:01:41;;;;;;;;;7.00;6.00;;;;;;;;5000607;28;8854;-82
2022/07/30 07:04:09;;;;;;;;;6.75;6.00;;;;;;;;5006067;28;9646;-75
2022/07/30 07:06:43;;;;;;;;;5.50;5.50;;;;;;;;5003325;28;8864;-75
2022/07/30 07:09:30;;;;;;;;;6.00;4.20;;;;;;;;5010167;28;8905;-76
2022/07/30 07:12:04;;;;;;;;;6.00;5.40;;;;;;;;5008706;28;8880;-74
2022/07/30 07:14:32;;;;;;;;;6.20;6.20;;;;;;;;5035053;28;8868;-77
2022/07/30 07:16:59;;;;;;;;;6.00;6.00;;;;;;;;5001969;28;8902;-92
2022/07/30 07:19:26;;;;;;;;;6.20;6.20;;;;;;;;5005092;28;9010;-86
2022/07/30 07:21:56;;;;;;;;;8.60;6.60;;;;;;;;5002635;28;8857;-82
2022/07/30 07:24:23;;;;;;;;;5.00;5.00;;;;;;;;4999511;28;9039;-81
2022/07/30 07:26:50;;;;;;;;;5.80;5.80;;;;;;;;5007919;28;8950;-83
2022/07/30 07:29:18;;;;;;;;;7.00;7.00;;;;;;;;5004181;28;8918;-87
2022/07/30 07:31:45;;;;;;;;;5.00;5.00;;;;;;;;5002449;28;8846;-81
2022/07/30 07:34:12;;;;;;;;;4.60;4.60;;;;;;;;5008379;28;8936;-84
2022/07/30 07:36:40;;;;;;;;;7.00;5.60;;;;;;;;5004488;28;8913;-87
2022/07/30 07:39:09;;;;;;;;;6.00;6.00;;;;;;;;5003177;28;9011;-82
2022/07/30 07:41:37;;;;;;;;;6.80;6.80;;;;;;;;5004774;28;9065;-74
2022/07/30 07:44:05;;;;;;;;;9.00;8.80;;;;;;;;5006823;28;8845;-77
2022/07/30 07:46:32;;;;;;;;;8.60;8.60;;;;;;;;5004757;28;8989;-79
2022/07/30 07:49:00;;;;;;;;;6.60;5.60;;;;;;;;5001685;28;9666;-75
2022/07/30 07:51:28;;;;;;;;;7.00;5.00;;;;;;;;5003571;28;8887;-83
2022/07/30 07:53:55;;;;;;;;;7.80;7.00;;;;;;;;5004485;28;8886;-78
2022/07/30 07:56:24;;;;;;;;;8.80;7.60;;;;;;;;5001994;28;9002;-76
2022/07/30 07:58:52;;;;;;;;;6.00;6.00;;;;;;;;5004702;28;8861;-77
2022/07/30 08:01:20;;;;;;;;;6.40;6.40;;;;;;;;5003796;28;8827;-79
2022/07/30 08:03:48;;;;;;;;;5.60;5.60;;;;;;;;5005372;28;8911;-80
2022/07/30 08:06:15;;;;;;;;;8.20;8.20;;;;;;;;5005412;28;8867;-78
2022/07/30 08:08:42;;;;;;;;;6.40;6.40;;;;;;;;5003306;28;8884;-76
2022/07/30 08:11:09;;;;;;;;;7.00;7.00;;;;;;;;5002939;28;8963;-75
2022/07/30 08:13:38;;;;;;;;;6.80;6.80;;;;;;;;5003289;28;8891;-75
2022/07/30 08:16:07;;;;;;;;;5.80;5.80;;;;;;;;5008003;28;8868;-77
2022/07/30 08:18:35;;;;;;;;;5.40;5.40;;;;;;;;5001833;28;8895;-81
2022/07/30 08:21:02;;;;;;;;;7.00;5.40;;;;;;;;5002753;28;8899;-76
2022/07/30 08:23:29;;;;;;;;;8.00;8.00;;;;;;;;5003136;28;8864;-74
2022/07/30 08:25:57;;;;;;;;;5.40;5.40;;;;;;;;5004856;28;8914;-79
2022/07/30 08:28:25;;;;;;;;;5.80;5.80;;;;;;;;5004640;28;8852;-79
2022/07/30 08:30:54;;;;;;;;;3.60;3.60;;;;;;;;5002962;28;8812;-77
2022/07/30 08:33:21;;;;;;;;;6.80;3.80;;;;;;;;5006475;28;8918;-75
2022/07/30 08:35:48;;;;;;;;;5.00;5.00;;;;;;;;5003798;28;8922;-79
2022/07/30 08:38:16;;;;;;;;;6.00;6.00;;;;;;;;5007184;28;8853;-75
2022/07/30 08:40:43;;;;;;;;;6.20;5.40;;;;;;;;5006156;28;8911;-80
2022/07/30 08:43:11;;;;;;;;;5.00;5.00;;;;;;;;4998798;28;8878;-81
2022/07/30 08:45:39;;;;;;;;;3.60;3.20;;;;;;;;5004701;28;8999;-81
2022/07/30 08:48:11;;;;;;;;;3.00;3.00;;;;;;;;5005561;28;8876;-82
2022/07/30 08:50:38;;;;;;;;;4.80;4.80;;;;;;;;5011791;28;8905;-83
2022/07/30 08:53:06;;;;;;;;;3.40;3.40;;;;;;;;5004257;28;8884;-82
2022/07/30 08:55:33;;;;;;;;;2.80;2.80;;;;;;;;5003223;28;8868;-80
2022/07/30 08:58:01;;;;;;;;;2.40;2.40;;;;;;;;5005082;28;8888;-76
2022/07/30 09:00:30;;;;;;;;;3.00;3.00;;;;;;;;5005266;28;10148;-79
2022/07/30 09:02:58;;;;;;;;;4.00;4.00;;;;;;;;5005309;28;8895;-80
2022/07/30 09:05:26;;;;;;;;;5.60;4.60;;;;;;;;5005863;28;8884;-79
2022/07/30 09:07:54;;;;;;;;;3.00;3.00;;;;;;;;5005399;28;8871;-83
2022/07/30 09:10:24;;;;;;;;;4.00;2.80;;;;;;;;5002895;28;9666;-82
2022/07/30 09:12:52;;;;;;;;;2.60;2.20;;;;;;;;5003776;28;8881;-84
2022/07/30 09:15:21;;;;;;;;;3.00;3.00;;;;;;;;5005052;28;8860;-75
2022/07/30 09:17:50;;;;;;;;;4.80;3.00;;;;;;;;5005752;28;8965;-75
2022/07/30 09:20:18;;;;;;;;;6.00;4.00;;;;;;;;5008605;28;9665;-79
2022/07/30 09:22:49;;;;;;;;;3.80;3.80;;;;;;;;5000794;28;8880;-78
2022/07/30 09:25:17;;;;;;;;;3.20;3.20;;;;;;;;5008002;28;8911;-81
2022/07/30 09:27:46;;;;;;;;;2.60;2.60;;;;;;;;5006559;28;8926;-75
2022/07/30 09:30:14;;;;;;;;;1.20;1.20;;;;;;;;5010677;28;8874;-76
2022/07/30 09:32:48;;;;;;;;;3.00;3.00;;;;;;;;5005466;28;9642;-81
2022/07/30 09:35:16;;;;;;;;;3.20;3.20;;;;;;;;5006233;28;10060;-80
2022/07/30 09:37:44;;;;;;;;;4.20;4.20;;;;;;;;5004843;28;8852;-76
2022/07/30 09:40:16;;;;;;;;;3.00;2.60;;;;;;;;5003001;28;8896;-75
2022/07/30 09:42:44;;;;;;;;;1.80;1.80;;;;;;;;5004484;28;8906;-77
2022/07/30 09:45:13;;;;;;;;;3.00;3.00;;;;;;;;5003740;28;8890;-76
2022/07/30 09:47:43;;;;;;;;;3.80;3.80;;;;;;;;5006645;28;8880;-75
2022/07/30 09:50:12;;;;;;;;;2.60;2.20;;;;;;;;5000690;28;8864;-77
2022/07/30 09:52:43;;;;;;;;;2.60;2.60;;;;;;;;5002693;28;8948;-76
2022/07/30 09:55:13;;;;;;;;;2.00;2.00;;;;;;;;5004981;28;8852;-75
2022/07/30 09:57:56;;;;;;;;;2.20;2.20;;;;;;;;5005375;28;9000;-76
2022/07/30 10:00:25;;;;;;;;;1.00;1.00;;;;;;;;4997690;28;10027;-79
2022/07/30 10:02:53;;;;;;;;;2.00;2.00;;;;;;;;5003616;28;8930;-77
2022/07/30 10:05:23;;;;;;;;;2.80;2.80;;;;;;;;5004427;28;8864;-78
2022/07/30 10:07:53;;;;;;;;;1.00;1.00;;;;;;;;5005306;28;8926;-78
2022/07/30 10:10:28;;;;;;;;;1.80;1.80;;;;;;;;5004091;28;9026;-79
2022/07/30 10:12:59;;;;;;;;;1.00;1.00;;;;;;;;5006515;28;8876;-78
2022/07/30 10:15:30;;;;;;;;;3.60;2.00;;;;;;;;5009937;28;8892;-76
2022/07/30 10:17:57;;;;;;;;;2.60;2.60;;;;;;;;5004645;28;8880;-78
2022/07/30 10:20:25;;;;;;;;;1.00;1.00;;;;;;;;5005844;28;8881;-79
2022/07/30 10:22:53;;;;;;;;;2.00;2.00;;;;;;;;5007853;28;8906;-78
2022/07/30 10:25:24;;;;;;;;;2.40;2.00;;;;;;;;5010939;28;8862;-77
2022/07/30 10:27:52;;;;;;;;;2.20;2.20;;;;;;;;4997937;28;8920;-78
2022/07/30 10:30:20;;;;;;;;;4.20;3.00;;;;;;;;5006612;28;8959;-77
2022/07/30 10:32:47;;;;;;;;;1.60;1.60;;;;;;;;5003310;28;8987;-76
2022/07/30 10:35:15;;;;;;;;;2.20;2.20;;;;;;;;5001321;28;8868;-77
2022/07/30 10:37:45;;;;;;;;;1.20;1.20;;;;;;;;5001095;28;9027;-77
2022/07/30 10:40:18;;;;;;;;;2.40;2.40;;;;;;;;5004903;28;8914;-81
2022/07/30 10:43:05;;;;;;;;;2.00;2.00;;;;;;;;5003958;28;9394;-79
2022/07/30 10:45:44;;;;;;;;;2.60;2.60;;;;;;;;5000829;28;8864;-78
2022/07/30 10:48:12;;;;;;;;;3.20;3.00;;;;;;;;5004840;28;8870;-76
2022/07/30 10:50:51;;;;;;;;;2.00;2.00;;;;;;;;5002690;28;8899;-83
2022/07/30 10:53:36;;;;;;;;;2.60;2.60;;;;;;;;5004310;28;8883;-77
2022/07/30 10:56:17;;;;;;;;;2.00;2.00;;;;;;;;5006065;28;8854;-79
2022/07/30 10:59:06;;;;;;;;;2.40;2.40;;;;;;;;5000189;28;8872;-79
2022/07/30 11:02:09;;;;;;;;;1.80;1.80;;;;;;;;5005345;28;8915;-78
2022/07/30 11:04:36;;;;;;;;;2.20;2.20;;;;;;;;5005281;28;8864;-77
2022/07/30 11:07:30;;;;;;;;;3.00;3.00;;;;;;;;5006415;28;8904;-81
2022/07/30 11:09:59;;;;;;;;;2.20;2.20;;;;;;;;5008028;28;8868;-81
2022/07/30 11:12:54;;;;;;;;;1.60;1.60;;;;;;;;5009578;28;8947;-76
2022/07/30 11:15:23;;;;;;;;;2.40;2.40;;;;;;;;5006035;28;8920;-81
2022/07/30 11:18:06;;;;;;;;;2.40;2.40;;;;;;;;5005269;28;8879;-79
2022/07/30 11:20:34;;;;;;;;;2.20;2.20;;;;;;;;5007974;28;8894;-81
2022/07/30 11:23:12;;;;;;;;;4.40;3.00;;;;;;;;5008832;28;10074;-79
2022/07/30 11:25:42;;;;;;;;;7.20;2.60;;;;;;;;5004699;28;8918;-76
2022/07/30 11:28:37;;;;;;;;;2.20;2.20;;;;;;;;5008854;28;8899;-82
2022/07/30 11:31:28;;;;;;;;;3.00;3.00;;;;;;;;4999065;28;8942;-83
2022/07/30 11:34:28;;;;;;;;;1.00;1.00;;;;;;;;5005901;28;9006;-80
2022/07/30 11:37:06;;;;;;;;;3.60;2.40;;;;;;;;5012775;28;9705;-77
2022/07/30 11:40:09;;;;;;;;;1.80;1.80;;;;;;;;5016916;28;8852;-83
2022/07/30 11:42:38;;;;;;;;;3.00;3.00;;;;;;;;5015695;28;8892;-79
2022/07/30 11:45:25;;;;;;;;;2.80;2.80;;;;;;;;5022024;28;8861;-79
2022/07/30 11:47:56;;;;;;;;;2.80;2.80;;;;;;;;5004285;28;8885;-77
2022/07/30 11:50:24;;;;;;;;;3.00;3.00;;;;;;;;5014592;28;8902;-77
2022/07/30 11:52:54;;;;;;;;;1.60;1.60;;;;;;;;5018769;28;8877;-80
2022/07/30 11:55:25;;;;;;;;;2.80;2.80;;;;;;;;5018050;28;8878;-82
2022/07/30 11:57:53;;;;;;;;;3.00;3.00;;;;;;;;5015097;28;8920;-82
2022/07/30 12:00:20;;;;;;;;;4.00;2.80;;;;;;;;5015990;28;8880;-82
2022/07/30 12:02:48;;;;;;;;;3.00;3.00;;;;;;;;5015049;28;8901;-81
2022/07/30 12:05:23;;;;;;;;;2.80;2.80;;;;;;;;5006855;28;8875;-80
2022/07/30 12:07:50;;;;;;;;;2.20;2.20;;;;;;;;5012578;28;8947;-80
2022/07/30 12:10:19;;;;;;;;;2.00;2.00;;;;;;;;5009630;28;8864;-82
2022/07/30 12:12:47;;;;;;;;;0.40;0.40;;;;;;;;5004364;28;8860;-81
2022/07/30 12:15:32;;;;;;;;;0.00;0.00;;;;;;;;5007327;28;8872;-85
2022/07/30 12:18:00;;;;;;;;;3.00;3.00;;;;;;;;5004510;28;8884;-77
2022/07/30 12:20:30;;;;;;;;;1.00;1.00;;;;;;;;5009112;28;8864;-84
2022/07/30 12:22:58;;;;;;;;;2.40;2.40;;;;;;;;5012796;28;9443;-82
2022/07/30 12:25:25;;;;;;;;;3.60;3.60;;;;;;;;5012989;28;8915;-85
2022/07/30 12:27:53;;;;;;;;;2.80;2.80;;;;;;;;5007053;28;8880;-88
2022/07/30 12:30:20;;;;;;;;;4.60;3.60;;;;;;;;5011994;28;8998;-85
2022/07/30 12:32:48;;;;;;;;;2.00;2.00;;;;;;;;5011513;28;8979;-81
2022/07/30 12:35:15;;;;;;;;;3.00;3.00;;;;;;;;5010848;28;8876;-82
2022/07/30 12:38:03;;;;;;;;;2.60;2.60;;;;;;;;5006934;28;9438;-81
2022/07/30 12:40:30;;;;;;;;;1.40;1.00;;;;;;;;5005404;28;8919;-79
2022/07/30 12:42:58;;;;;;;;;2.00;2.00;;;;;;;;5014621;28;8957;-83
2022/07/30 12:45:29;;;;;;;;;2.00;2.00;;;;;;;;5018268;28;8924;-82
2022/07/30 12:47:57;;;;;;;;;2.40;2.40;;;;;;;;5009229;28;8869;-81
2022/07/30 12:50:25;;;;;;;;;4.00;3.40;;;;;;;;5018151;28;8873;-82
2022/07/30 12:52:56;;;;;;;;;3.00;2.40;;;;;;;;5014715;28;8904;-84
2022/07/30 12:55:31;;;;;;;;;1.60;1.60;;;;;;;;5015379;28;9667;-82
2022/07/30 12:58:00;;;;;;;;;5.00;3.00;;;;;;;;5013391;28;8901;-81
2022/07/30 13:00:29;;;;;;;;;2.00;2.00;;;;;;;;5014734;28;8796;-79
2022/07/30 13:02:57;;;;;;;;;3.20;3.00;;;;;;;;5019727;28;8901;-81
2022/07/30 13:05:44;;;;;;;;;3.00;3.00;;;;;;;;5009511;28;8957;-79
2022/07/30 13:08:12;;;;;;;;;2.20;2.20;;;;;;;;5013476;28;8885;-78
2022/07/30 13:10:53;;;;;;;;;0.00;0.00;;;;;;;;5009210;28;9001;-81
2022/07/30 13:13:20;;;;;;;;;2.00;2.00;;;;;;;;5007499;28;8868;-79
2022/07/30 13:15:59;;;;;;;;;2.60;2.60;;;;;;;;5018656;28;8873;-80
2022/07/30 13:18:26;;;;;;;;;2.60;2.60;;;;;;;;5005595;28;9533;-80
2022/07/30 13:20:54;;;;;;;;;1.40;1.40;;;;;;;;5018346;28;8893;-79
2022/07/30 13:23:22;;;;;;;;;1.80;1.80;;;;;;;;5014878;28;8876;-77
2022/07/30 13:25:50;;;;;;;;;1.00;1.00;;;;;;;;5019226;28;8870;-80
2022/07/30 13:28:18;;;;;;;;;2.60;2.00;;;;;;;;5014116;28;8959;-77
2022/07/30 13:30:45;;;;;;;;;2.40;2.40;;;;;;;;5017763;28;8892;-82
2022/07/30 13:33:13;;;;;;;;;2.00;2.00;;;;;;;;5014966;28;9672;-79
2022/07/30 13:35:40;;;;;;;;;1.00;1.00;;;;;;;;5009773;28;8891;-81
2022/07/30 13:38:08;;;;;;;;;1.60;1.60;;;;;;;;5014158;28;8898;-79
2022/07/30 13:40:37;;;;;;;;;1.40;1.40;;;;;;;;5011761;28;8939;-80
2022/07/30 13:43:05;;;;;;;;;3.40;3.00;;;;;;;;5014614;28;8882;-78
2022/07/30 13:45:33;;;;;;;;;2.60;2.60;;;;;;;;5015438;28;8962;-78
2022/07/30 13:48:00;;;;;;;;;1.40;1.40;;;;;;;;5003814;28;8896;-77
2022/07/30 13:50:27;;;;;;;;;2.00;2.00;;;;;;;;5009845;28;8861;-77
2022/07/30 13:52:54;;;;;;;;;2.00;2.00;;;;;;;;5013283;28;8873;-82
2022/07/30 13:55:22;;;;;;;;;1.00;1.00;;;;;;;;5015277;28;8931;-83
2022/07/30 13:57:50;;;;;;;;;1.80;1.80;;;;;;;;5008920;28;8893;-80
2022/07/30 14:00:18;;;;;;;;;1.00;1.00;;;;;;;;5013930;28;8894;-79
2022/07/30 14:02:46;;;;;;;;;3.00;1.80;;;;;;;;5012522;28;8903;-81
2022/07/30 14:05:13;;;;;;;;;2.00;2.00;;;;;;;;5011900;28;9720;-78
2022/07/30 14:07:53;;;;;;;;;2.60;2.60;;;;;;;;5007607;28;8862;-78
2022/07/30 14:10:21;;;;;;;;;3.00;3.00;;;;;;;;5005287;28;9002;-77
2022/07/30 14:12:53;;;;;;;;;3.80;2.00;;;;;;;;5005828;28;8904;-78
2022/07/30 14:15:21;;;;;;;;;3.00;3.00;;;;;;;;5011187;28;8865;-82
2022/07/30 14:17:48;;;;;;;;;1.60;1.60;;;;;;;;5009665;28;8883;-78
2022/07/30 14:20:16;;;;;;;;;1.80;1.80;;;;;;;;5000382;28;8929;-76
2022/07/30 14:22:43;;;;;;;;;1.00;1.00;;;;;;;;5016748;28;9749;-81
2022/07/30 14:25:11;;;;;;;;;2.00;2.00;;;;;;;;5013205;28;8949;-80
2022/07/30 14:27:39;;;;;;;;;1.20;1.20;;;;;;;;5015547;28;8885;-83
2022/07/30 14:30:10;;;;;;;;;2.60;2.60;;;;;;;;5013966;28;8908;-82
2022/07/30 14:32:37;;;;;;;;;3.20;2.00;;;;;;;;5013587;28;8900;-77
2022/07/30 14:35:07;;;;;;;;;2.00;2.00;;;;;;;;5008996;28;9006;-77
2022/07/30 14:37:35;;;;;;;;;2.00;2.00;;;;;;;;5038095;28;8852;-78
2022/07/30 14:40:02;;;;;;;;;3.00;2.00;;;;;;;;5017759;28;8897;-80
2022/07/30 14:42:29;;;;;;;;;1.00;1.00;;;;;;;;5017595;28;9674;-79
2022/07/30 14:44:57;;;;;;;;;3.00;3.00;;;;;;;;5017493;28;8889;-77
2022/07/30 14:47:26;;;;;;;;;1.00;1.00;;;;;;;;5010638;28;8880;-79
2022/07/30 14:49:53;;;;;;;;;1.20;1.20;;;;;;;;5018536;28;8911;-79
2022/07/30 14:52:20;;;;;;;;;2.60;2.60;;;;;;;;5015591;28;8880;-78
2022/07/30 14:54:50;;;;;;;;;1.00;1.00;;;;;;;;5019676;28;8962;-78
2022/07/30 14:57:18;;;;;;;;;1.00;1.00;;;;;;;;5011372;28;8957;-78
2022/07/30 14:59:49;;;;;;;;;2.40;2.40;;;;;;;;5021595;28;8893;-78
2022/07/30 15:02:16;;;;;;;;;3.00;3.00;;;;;;;;5014388;28;8935;-80
2022/07/30 15:04:45;;;;;;;;;3.00;3.00;;;;;;;;5022658;28;8862;-78
2022/07/30 15:07:13;;;;;;;;;5.00;3.00;;;;;;;;5014730;28;8970;-80
2022/07/30 15:09:40;;;;;;;;;4.00;2.00;;;;;;;;5012085;28;8914;-81
2022/07/30 15:12:08;;;;;;;;;2.80;2.40;;;;;;;;5007567;28;8860;-78
2022/07/30 15:14:36;;;;;;;;;5.20;4.00;;;;;;;;5020269;28;8881;-78